MMPN

Licenciado y General Ignacio Lopez Rayon Airport

Mexico
TAF MMPN 251647Z 2518/2618 18012KT 5SM VC RA BKN030CB TEMPO 2520/2524 3SM TSRA FM260000 18010KT 5SM RA BKN020CB OVC080 FM260300 00000KT P6SM SCT015 BKN080 TEMPO 2612/2616 2SM BR BKN010
Issued Valid From Valid To
Sep-25 @ 16:47 UTC
(3 hours ago)
Sep-25 @ 18:00 UTC
(2 hours ago)
Sep-26 @ 18:00 UTC
(in 22 hours)
Sep-25 @ 18:00 to Sep-26 @ 00:00
TAF MMPN 251647Z 2518/2618 18012KT 5SM VC RA BKN030CB
Wind Visibility Clouds Conditions
180° at 12 knots 5 miles
  • Broken at 3,000' AGL
  • Rain
Temporary Sep-25 @ 20:00 to Sep-26 @ 00:00
TEMPO 2520/2524 3SM TSRA
Visibility Conditions
3 miles
  • Thunderstorm
  • Rain
From Sep-26 @ 00:00 to Sep-26 @ 03:00
FM260000 18010KT 5SM RA BKN020CB OVC080
Wind Visibility Clouds Conditions
180° at 10 knots 5 miles
  • Broken at 2,000' AGL
  • Overcast at 8,000' AGL
  • Rain
From Sep-26 @ 03:00 to Sep-26 @ 18:00
FM260300 00000KT P6SM SCT015 BKN080
Visibility Clouds
Greater than 6 miles
  • Scattered at 1,500' AGL
  • Broken at 8,000' AGL
Temporary Sep-26 @ 12:00 to Sep-26 @ 16:00
TEMPO 2612/2616 2SM BR BKN010
Visibility Clouds Conditions
2 miles
  • Broken at 1,000' AGL
  • Mist
TAF MMPN 251647Z 2518/2618 18012KT 5SM VC RA BKN030CB TEMPO 2520/2524 3SM TSRA FM260000 18010KT 5SM RA BKN020CB OVC080 FM260300 00000KT P6SM SCT015 BKN080 TEMPO 2612/2616 2SM BR BKN010
Issued Sep-25 @ 16:47 UTC
(3 hours ago)
Valid From Sep-25 @ 18:00 UTC
(2 hours ago)
Valid To Sep-26 @ 18:00 UTC
(in 22 hours)
Sep-25 @ 18:00 - Sep-26 @ 00:00
Wind Visibility
180° at 12 knots 5 miles
Clouds
  • Broken at 3,000' AGL
Conditions
  • Rain
Temporary Sep-25 @ 20:00 - Sep-26 @ 00:00
Conditions
  • Thunderstorm
  • Rain
From Sep-26 @ 00:00 - Sep-26 @ 03:00
Wind Visibility
180° at 10 knots 5 miles
Clouds
  • Broken at 2,000' AGL
  • Overcast at 8,000' AGL
Conditions
  • Rain
From Sep-26 @ 03:00 - Sep-26 @ 18:00
Clouds
  • Scattered at 1,500' AGL
  • Broken at 8,000' AGL
Temporary Sep-26 @ 12:00 - Sep-26 @ 16:00
Clouds
  • Broken at 1,000' AGL
Conditions
  • Mist